This is the latest recevied weather packets stored in our database for station/object W0VI. If no packets are shown the sender has not sent any weather packets the latest 10 day(s).
| Time | Temp. | Humidity | Pressure | Rain* | Wind** | Luminosity | Snow |
|---|---|---|---|---|---|---|---|
| 1778002868 | 8.89° C | 41% | 1010.8 hPa | 0 mm | - | 351 W/m² | - |
| 1778002565 | 8.89° C | 42% | 1010.9 hPa | 0 mm | - | 890 W/m² | - |
| 1778002262 | 8.33° C | 42% | 1011.3 hPa | 0 mm | - | 434 W/m² | - |
| 1778001960 | 8.33° C | 42% | 1011.2 hPa | 0 mm | - | 424 W/m² | - |
| 1778001656 | 8.89° C | 42% | 1011 hPa | 0 mm | - | 263 W/m² | - |
| 1778001351 | 8.33° C | 43% | 1011.1 hPa | 0 mm | - | 540 W/m² | - |
| 1778001049 | 7.78° C | 45% | 1011.2 hPa | 0 mm | - | 897 W/m² | - |
| 1778000746 | 8.33° C | 44% | 1011 hPa | 0 mm | - | 505 W/m² | - |
| 1778000442 | 8.89° C | 44% | 1010.9 hPa | 0 mm | - | 692 W/m² | - |
| 1778000137 | 7.78° C | 44% | 1010.9 hPa | 0 mm | - | 488 W/m² | - |
| 1777999833 | 7.78° C | 44% | 1011.1 hPa | 0 mm | - | 309 W/m² | - |
| 1777999529 | 7.78° C | 43% | 1011.3 hPa | 0 mm | - | 297 W/m² | - |
| 1777999227 | 8.33° C | 42% | 1011.2 hPa | 0 mm | - | 265 W/m² | - |
| 1777998925 | 7.78° C | 43% | 1011 hPa | 0 mm | - | 312 W/m² | - |
| 1777998621 | 7.78° C | 42% | 1011.2 hPa | 0 mm | - | 310 W/m² | - |
| 1777998315 | 7.78° C | 44% | 1010.9 hPa | 0 mm | - | 284 W/m² | - |
| 1777998012 | 9.44° C | 40% | 1011.1 hPa | 0 mm | - | 519 W/m² | - |
| 1777997708 | 8.33° C | 43% | 1011 hPa | 0 mm | - | 837 W/m² | - |
| 1777997406 | 8.33° C | 45% | 1011 hPa | 0 mm | - | 803 W/m² | - |
| 1777997104 | 8.89° C | 42% | 1011 hPa | 0 mm | - | 823 W/m² | - |
| 1777996800 | 7.78° C | 44% | 1011.1 hPa | 0 mm | - | 778 W/m² | - |
| 1777996496 | 7.22° C | 46% | 1011 hPa | 0 mm | - | 809 W/m² | - |
| 1777996193 | 8.33° C | 44% | 1011.2 hPa | 0 mm | - | 769 W/m² | - |
| 1777995889 | 7.78° C | 45% | 1011.2 hPa | 0 mm | - | 801 W/m² | - |
| 1777995585 | 7.22° C | 46% | 1011.2 hPa | 0 mm | - | 754 W/m² | - |
* Rain latest hour (hover to see other rain measurements)
** Current wind speed in m/s (hover to see current wind gust speed)